< < Back
Terminal Aerodrome Forecast


Current Version              Previous Versions:   1  2  3  4  5  6  7  8  9  

Terminal Aerodrome Forecast

897
FTAK31 PAJN 221700
TAFAHN
TAF
PAHN 221730Z 2218/2318 30010KT P6SM SKC
     FM222000 12008KT P6SM SKC
     FM230400 VRB04KT P6SM SCT100
     FM230900 VRB03KT P6SM BKN100
     FM231700 12006KT P6SM SCT050 BKN100
      AMD LTD TO CLD VIS AND WIND=



Latest METAR

167
SAUS70 KWBC 221700 RRA
MTRAHN
METAR KAHN 221651Z VRB05KT 10SM CLR 24/09 A3021 RMK AO2 SLP226
T02390094


USA.gov is the U.S. government's official web portal to all federal, state and local government web resources and services.